Time;durP1;ratioP1;P1;durP2;ratioP2;P2;SDS_P1;SDS_P2;PMS_P1;PMS_P2;Temp;Humidity;BMP_temperature;BMP_pressure;BME280_temperature;BME280_humidity;BME280_pressure;Samples;Min_cycle;Max_cycle;Signal;HPM_P1;HPM_P2
2023/03/23 00:00:01;;;;;;;50.63;37.87;;;;;;;;;;5085559;28;20294;-84
2023/03/23 00:02:28;;;;;;;52.43;37.70;;;;;;;;;;5108827;28;20183;-84
2023/03/23 00:04:54;;;;;;;47.87;36.30;;;;;;;;;;5091399;28;20183;-83
2023/03/23 00:07:21;;;;;;;51.47;38.20;;;;;;;;;;5109255;28;20192;-83
2023/03/23 00:09:53;;;;;;;50.57;38.07;;;;;;;;;;5075723;28;20933;-84
2023/03/23 00:12:21;;;;;;;43.73;34.87;;;;;;;;;;5092179;28;20183;-84
2023/03/23 00:14:47;;;;;;;45.70;34.93;;;;;;;;;;5080292;28;20261;-82
2023/03/23 00:17:14;;;;;;;48.43;35.03;;;;;;;;;;5111487;28;20201;-83
2023/03/23 00:19:45;;;;;;;45.00;36.57;;;;;;;;;;5089427;28;20302;-82
2023/03/23 00:22:16;;;;;;;51.03;36.80;;;;;;;;;;5075810;28;20627;-83
2023/03/23 00:24:43;;;;;;;45.17;35.33;;;;;;;;;;5093637;28;20177;-83
2023/03/23 00:27:12;;;;;;;47.70;36.43;;;;;;;;;;5092792;28;20176;-83
2023/03/23 00:29:39;;;;;;;44.87;34.60;;;;;;;;;;5086627;28;20441;-83
2023/03/23 00:32:06;;;;;;;44.77;36.30;;;;;;;;;;5089834;28;20211;-83
2023/03/23 00:34:33;;;;;;;45.73;36.20;;;;;;;;;;5107218;28;20817;-82
2023/03/23 00:36:59;;;;;;;47.97;36.17;;;;;;;;;;5083785;28;20230;-83
2023/03/23 00:39:26;;;;;;;43.43;32.93;;;;;;;;;;5097768;28;20229;-82
2023/03/23 00:41:54;;;;;;;45.40;33.07;;;;;;;;;;5080206;28;20176;-82
2023/03/23 00:44:23;;;;;;;45.93;34.37;;;;;;;;;;5107953;28;20202;-83
2023/03/23 00:46:49;;;;;;;44.00;33.27;;;;;;;;;;5088333;28;20657;-82
2023/03/23 00:49:17;;;;;;;42.90;34.00;;;;;;;;;;5091698;28;20271;-82
2023/03/23 00:51:43;;;;;;;46.27;33.40;;;;;;;;;;5090463;28;20180;-82
2023/03/23 00:54:10;;;;;;;37.87;30.93;;;;;;;;;;5092219;28;20224;-84
2023/03/23 00:56:36;;;;;;;38.93;29.70;;;;;;;;;;5079046;28;20188;-82
2023/03/23 00:59:03;;;;;;;38.70;29.40;;;;;;;;;;5076476;28;20180;-84
2023/03/23 01:01:29;;;;;;;41.13;31.30;;;;;;;;;;5077757;28;20208;-85
2023/03/23 01:04:00;;;;;;;43.00;30.97;;;;;;;;;;5078311;28;20188;-84
2023/03/23 01:06:27;;;;;;;40.43;30.33;;;;;;;;;;5084050;28;20168;-83
2023/03/23 01:08:56;;;;;;;39.57;29.27;;;;;;;;;;5090864;28;20179;-83
2023/03/23 01:11:23;;;;;;;35.40;29.27;;;;;;;;;;5083444;28;20184;-83
2023/03/23 01:13:49;;;;;;;38.67;28.93;;;;;;;;;;5108056;28;20180;-84
2023/03/23 01:16:15;;;;;;;42.03;29.13;;;;;;;;;;5089628;28;20275;-84
2023/03/23 01:18:41;;;;;;;40.13;30.77;;;;;;;;;;5090283;28;20558;-85
2023/03/23 01:21:08;;;;;;;41.40;30.97;;;;;;;;;;5078953;28;20593;-84
2023/03/23 01:23:35;;;;;;;34.73;27.97;;;;;;;;;;5089549;28;20256;-85
2023/03/23 01:26:07;;;;;;;37.30;28.40;;;;;;;;;;5090899;28;20266;-84
2023/03/23 01:28:33;;;;;;;35.03;28.53;;;;;;;;;;5090429;28;20184;-84
2023/03/23 01:31:00;;;;;;;38.57;28.30;;;;;;;;;;5105500;28;20194;-83
2023/03/23 01:33:26;;;;;;;38.03;28.53;;;;;;;;;;5088064;28;20175;-82
2023/03/23 01:35:52;;;;;;;36.37;27.23;;;;;;;;;;5105741;28;20637;-82
2023/03/23 01:38:18;;;;;;;33.17;26.27;;;;;;;;;;5085414;28;20634;-85
2023/03/23 01:40:45;;;;;;;31.63;25.30;;;;;;;;;;5080199;28;20571;-82
2023/03/23 01:43:15;;;;;;;34.67;27.13;;;;;;;;;;5090421;28;20745;-83
2023/03/23 01:45:41;;;;;;;29.80;23.83;;;;;;;;;;5091206;28;20786;-83
2023/03/23 01:48:10;;;;;;;31.00;25.47;;;;;;;;;;5088001;28;20649;-82
2023/03/23 01:50:40;;;;;;;32.67;25.17;;;;;;;;;;5108175;28;20194;-83
2023/03/23 01:53:08;;;;;;;32.23;25.07;;;;;;;;;;5084184;28;20203;-82
2023/03/23 01:55:36;;;;;;;33.27;24.17;;;;;;;;;;5104383;28;20177;-82
2023/03/23 01:58:03;;;;;;;29.97;22.90;;;;;;;;;;5106815;28;20721;-83
2023/03/23 02:00:30;;;;;;;29.20;23.13;;;;;;;;;;5109464;28;20685;-82
2023/03/23 02:02:56;;;;;;;29.63;23.13;;;;;;;;;;5107046;28;21121;-82
2023/03/23 02:05:31;;;;;;;27.13;22.43;;;;;;;;;;5107193;28;20184;-82
2023/03/23 02:08:02;;;;;;;29.70;22.73;;;;;;;;;;5106241;28;20175;-84
2023/03/23 02:10:28;;;;;;;28.80;22.17;;;;;;;;;;5104829;28;20184;-82
2023/03/23 02:12:54;;;;;;;26.67;22.00;;;;;;;;;;5091979;28;20176;-83
2023/03/23 02:15:22;;;;;;;28.67;22.10;;;;;;;;;;5109771;28;20193;-83
2023/03/23 02:17:57;;;;;;;31.13;23.30;;;;;;;;;;5089565;28;20196;-83
2023/03/23 02:20:42;;;;;;;30.60;21.10;;;;;;;;;;5087408;28;20210;-84
2023/03/23 02:23:15;;;;;;;30.80;24.00;;;;;;;;;;5067880;28;20219;-84
2023/03/23 02:25:44;;;;;;;32.83;25.00;;;;;;;;;;5066845;28;20612;-83
2023/03/23 02:28:29;;;;;;;30.83;23.27;;;;;;;;;;5064893;28;20185;-83
2023/03/23 02:31:16;;;;;;;34.40;24.43;;;;;;;;;;5066727;28;20201;-83
2023/03/23 02:34:02;;;;;;;31.93;23.90;;;;;;;;;;5066378;28;20678;-83
2023/03/23 02:36:34;;;;;;;30.30;22.83;;;;;;;;;;5065477;28;20589;-83
2023/03/23 02:39:09;;;;;;;28.60;22.37;;;;;;;;;;5065871;28;20278;-83
2023/03/23 02:41:43;;;;;;;28.50;21.87;;;;;;;;;;5066319;28;20204;-83
2023/03/23 02:44:11;;;;;;;29.53;22.40;;;;;;;;;;5066785;28;20177;-82
2023/03/23 02:46:40;;;;;;;27.43;21.63;;;;;;;;;;5069020;28;20187;-82
2023/03/23 02:49:07;;;;;;;28.47;21.33;;;;;;;;;;5066539;28;20204;-82
2023/03/23 02:51:35;;;;;;;24.60;19.87;;;;;;;;;;5065277;28;20319;-82
2023/03/23 02:54:01;;;;;;;24.90;20.77;;;;;;;;;;5064235;28;20173;-81
2023/03/23 02:56:28;;;;;;;25.27;20.47;;;;;;;;;;5065352;28;20712;-82
2023/03/23 02:58:55;;;;;;;24.30;18.97;;;;;;;;;;5063671;28;20188;-82
2023/03/23 03:01:33;;;;;;;24.60;20.10;;;;;;;;;;5063376;28;20211;-83
2023/03/23 03:04:06;;;;;;;27.13;20.90;;;;;;;;;;5063343;28;20772;-83
2023/03/23 03:06:40;;;;;;;29.13;21.13;;;;;;;;;;5062405;28;20184;-82
2023/03/23 03:09:35;;;;;;;26.53;19.47;;;;;;;;;;5064145;28;20184;-83
2023/03/23 03:12:13;;;;;;;27.43;20.40;;;;;;;;;;5025429;28;20186;-82
2023/03/23 03:14:43;;;;;;;28.90;19.50;;;;;;;;;;5012553;28;20281;-82
2023/03/23 03:17:24;;;;;;;26.87;19.93;;;;;;;;;;5029483;28;20194;-83
2023/03/23 03:19:53;;;;;;;28.03;21.33;;;;;;;;;;5021270;28;20353;-82
2023/03/23 03:22:20;;;;;;;25.83;19.93;;;;;;;;;;5027862;28;20298;-83
2023/03/23 03:24:47;;;;;;;26.90;20.50;;;;;;;;;;5051980;28;20184;-82
2023/03/23 03:27:16;;;;;;;25.33;20.50;;;;;;;;;;5034250;28;20201;-83
2023/03/23 03:29:45;;;;;;;23.10;19.60;;;;;;;;;;5051404;28;20602;-83
2023/03/23 03:32:13;;;;;;;30.43;20.97;;;;;;;;;;5050734;28;20202;-83
2023/03/23 03:34:39;;;;;;;24.87;20.53;;;;;;;;;;5033812;28;20213;-82
2023/03/23 03:37:05;;;;;;;30.47;21.73;;;;;;;;;;5034003;28;20177;-81
2023/03/23 03:39:34;;;;;;;27.33;19.23;;;;;;;;;;5050764;28;20178;-82
2023/03/23 03:42:00;;;;;;;24.37;19.17;;;;;;;;;;5050316;28;20201;-83
2023/03/23 03:44:26;;;;;;;25.43;19.63;;;;;;;;;;5033845;28;20188;-83
2023/03/23 03:46:52;;;;;;;30.27;19.43;;;;;;;;;;5050804;28;20194;-82
2023/03/23 03:49:19;;;;;;;25.83;20.53;;;;;;;;;;5071165;28;20292;-82
2023/03/23 03:51:46;;;;;;;25.20;20.67;;;;;;;;;;5086082;28;20271;-84
2023/03/23 03:54:12;;;;;;;25.60;20.20;;;;;;;;;;5085820;28;20218;-83
2023/03/23 03:56:40;;;;;;;26.83;19.30;;;;;;;;;;5088644;28;20552;-83
2023/03/23 03:59:07;;;;;;;28.97;21.30;;;;;;;;;;5082659;28;20925;-84
2023/03/23 04:01:34;;;;;;;26.33;20.33;;;;;;;;;;5084907;28;20212;-83
2023/03/23 04:04:00;;;;;;;24.33;19.13;;;;;;;;;;5104491;28;20169;-84
2023/03/23 04:06:27;;;;;;;27.30;20.63;;;;;;;;;;5091049;28;20200;-82
2023/03/23 04:08:58;;;;;;;26.20;20.30;;;;;;;;;;5077523;28;20219;-82
2023/03/23 04:11:25;;;;;;;25.93;21.27;;;;;;;;;;5087392;28;20225;-83
2023/03/23 04:13:51;;;;;;;25.43;19.77;;;;;;;;;;5089636;28;20189;-83
2023/03/23 04:16:18;;;;;;;26.93;20.80;;;;;;;;;;5088941;28;20183;-82
2023/03/23 04:18:47;;;;;;;27.73;20.70;;;;;;;;;;5087818;28;20191;-82
2023/03/23 04:21:14;;;;;;;25.70;19.00;;;;;;;;;;5083287;28;20262;-83
2023/03/23 04:23:41;;;;;;;26.73;20.60;;;;;;;;;;5060260;28;20246;-83
2023/03/23 04:26:12;;;;;;;26.03;20.53;;;;;;;;;;5078794;28;20188;-83
2023/03/23 04:28:39;;;;;;;24.93;19.90;;;;;;;;;;5051019;28;20235;-82
2023/03/23 04:31:05;;;;;;;23.87;19.30;;;;;;;;;;5060290;28;20263;-82
2023/03/23 04:33:31;;;;;;;24.37;19.57;;;;;;;;;;5066974;28;20650;-83
2023/03/23 04:36:00;;;;;;;26.83;21.13;;;;;;;;;;5062873;28;20710;-82
2023/03/23 04:38:27;;;;;;;26.43;20.20;;;;;;;;;;5057896;28;20216;-82
2023/03/23 04:40:53;;;;;;;25.20;20.20;;;;;;;;;;5061378;28;20215;-82
2023/03/23 04:43:21;;;;;;;25.17;19.73;;;;;;;;;;5057010;28;20182;-82
2023/03/23 04:45:48;;;;;;;25.93;20.10;;;;;;;;;;5072885;28;20182;-82
2023/03/23 04:48:14;;;;;;;25.57;19.40;;;;;;;;;;5065813;28;20177;-82
2023/03/23 04:50:41;;;;;;;25.17;19.50;;;;;;;;;;5065408;28;20714;-83
2023/03/23 04:53:08;;;;;;;28.17;20.10;;;;;;;;;;5056981;28;20185;-83
2023/03/23 04:55:38;;;;;;;24.83;19.10;;;;;;;;;;5053600;28;20585;-83
2023/03/23 04:58:07;;;;;;;26.57;20.10;;;;;;;;;;5065665;28;20645;-82
2023/03/23 05:00:34;;;;;;;25.80;18.40;;;;;;;;;;5065368;28;20265;-83
2023/03/23 05:03:00;;;;;;;24.27;19.33;;;;;;;;;;5064839;28;20194;-84
2023/03/23 05:05:30;;;;;;;23.17;18.73;;;;;;;;;;5062574;28;20210;-81
2023/03/23 05:07:56;;;;;;;22.47;18.10;;;;;;;;;;5052664;28;20216;-82
2023/03/23 05:10:23;;;;;;;25.27;19.23;;;;;;;;;;5053999;28;20174;-84
2023/03/23 05:12:49;;;;;;;22.70;17.23;;;;;;;;;;5083109;28;20200;-82
2023/03/23 05:15:16;;;;;;;22.53;17.40;;;;;;;;;;5059858;28;20231;-82
2023/03/23 05:17:43;;;;;;;25.53;18.20;;;;;;;;;;5059784;28;20177;-82
2023/03/23 05:20:14;;;;;;;23.37;17.60;;;;;;;;;;5080624;28;20311;-83
2023/03/23 05:22:41;;;;;;;23.73;16.67;;;;;;;;;;5052134;28;20292;-83
2023/03/23 05:25:11;;;;;;;21.87;15.83;;;;;;;;;;5082197;28;20205;-83
2023/03/23 05:27:37;;;;;;;22.80;15.67;;;;;;;;;;5057876;28;20189;-83
2023/03/23 05:30:04;;;;;;;22.23;16.20;;;;;;;;;;5053888;28;20182;-83
2023/03/23 05:32:30;;;;;;;22.07;15.63;;;;;;;;;;5049711;28;20181;-82
2023/03/23 05:35:00;;;;;;;20.97;15.67;;;;;;;;;;5049464;28;20177;-82
2023/03/23 05:37:32;;;;;;;19.83;15.33;;;;;;;;;;5057598;28;20865;-82
2023/03/23 05:40:04;;;;;;;19.57;15.17;;;;;;;;;;5060909;28;20312;-82
2023/03/23 05:42:31;;;;;;;17.03;15.03;;;;;;;;;;5052823;28;20660;-81
2023/03/23 05:44:58;;;;;;;19.57;14.93;;;;;;;;;;5062549;28;20184;-84
2023/03/23 05:47:25;;;;;;;17.67;15.47;;;;;;;;;;5060503;28;20272;-83
2023/03/23 05:49:51;;;;;;;22.20;15.67;;;;;;;;;;5049142;28;20208;-82
2023/03/23 05:52:17;;;;;;;19.07;14.03;;;;;;;;;;5049256;28;20865;-83
2023/03/23 05:54:44;;;;;;;21.93;15.43;;;;;;;;;;5054241;28;20651;-83
2023/03/23 05:57:10;;;;;;;19.00;15.13;;;;;;;;;;5061263;28;20209;-83
2023/03/23 05:59:37;;;;;;;19.40;14.37;;;;;;;;;;5056111;28;20181;-82
2023/03/23 06:02:04;;;;;;;16.50;13.77;;;;;;;;;;5068379;28;20233;-83
2023/03/23 06:04:33;;;;;;;16.67;14.10;;;;;;;;;;5055311;28;20185;-83
2023/03/23 06:06:59;;;;;;;17.60;13.73;;;;;;;;;;5057896;28;20165;-82
2023/03/23 06:09:25;;;;;;;17.10;13.97;;;;;;;;;;5065221;28;20191;-82
2023/03/23 06:11:51;;;;;;;16.00;12.97;;;;;;;;;;5064362;28;20292;-82
2023/03/23 06:14:17;;;;;;;20.73;14.00;;;;;;;;;;5051176;28;20208;-82
2023/03/23 06:16:45;;;;;;;20.40;13.80;;;;;;;;;;5056599;28;20173;-82
2023/03/23 06:19:11;;;;;;;15.13;12.40;;;;;;;;;;5073337;28;20189;-82
2023/03/23 06:21:38;;;;;;;20.20;13.30;;;;;;;;;;5079298;28;20688;-82
2023/03/23 06:24:04;;;;;;;16.03;12.70;;;;;;;;;;5086130;28;20195;-83
2023/03/23 06:26:38;;;;;;;18.20;13.63;;;;;;;;;;5086383;28;20184;-82
2023/03/23 06:29:10;;;;;;;19.00;13.50;;;;;;;;;;5087657;28;20176;-82
2023/03/23 06:31:37;;;;;;;16.70;12.63;;;;;;;;;;5086097;28;20180;-83
2023/03/23 06:34:03;;;;;;;12.80;11.50;;;;;;;;;;5105397;28;20198;-82
2023/03/23 06:36:30;;;;;;;17.33;12.83;;;;;;;;;;5104039;28;20256;-83
2023/03/23 06:38:56;;;;;;;17.37;12.90;;;;;;;;;;5086656;28;20775;-82
2023/03/23 06:41:22;;;;;;;17.10;12.67;;;;;;;;;;5088796;28;20358;-82
2023/03/23 06:43:48;;;;;;;15.83;11.90;;;;;;;;;;5089635;28;20188;-82
2023/03/23 06:46:21;;;;;;;13.53;11.30;;;;;;;;;;5088335;28;20229;-82
2023/03/23 06:48:51;;;;;;;18.93;12.60;;;;;;;;;;5083765;28;20638;-82
2023/03/23 06:51:17;;;;;;;18.03;12.20;;;;;;;;;;5084847;28;20220;-82
2023/03/23 06:53:47;;;;;;;15.83;12.10;;;;;;;;;;5087373;28;20187;-83
2023/03/23 06:56:21;;;;;;;17.23;12.37;;;;;;;;;;5086832;28;20238;-82
2023/03/23 06:58:48;;;;;;;16.53;12.27;;;;;;;;;;5083342;28;20171;-83
2023/03/23 07:01:16;;;;;;;15.10;12.43;;;;;;;;;;5096773;28;20287;-83
2023/03/23 07:03:49;;;;;;;19.43;12.37;;;;;;;;;;5084485;28;20256;-83
2023/03/23 07:06:15;;;;;;;15.17;11.67;;;;;;;;;;5078470;28;20184;-82
2023/03/23 07:08:45;;;;;;;20.20;12.23;;;;;;;;;;5088242;28;20186;-82
2023/03/23 07:11:13;;;;;;;16.03;11.83;;;;;;;;;;5072632;28;20638;-83
2023/03/23 07:13:49;;;;;;;16.60;11.87;;;;;;;;;;5085051;28;20179;-83
2023/03/23 07:16:17;;;;;;;14.30;11.47;;;;;;;;;;5086286;28;20676;-82
2023/03/23 07:18:45;;;;;;;13.57;10.93;;;;;;;;;;5088620;28;20176;-82
2023/03/23 07:21:11;;;;;;;14.07;10.53;;;;;;;;;;5105275;28;20331;-83
2023/03/23 07:23:37;;;;;;;16.40;11.77;;;;;;;;;;5089289;28;20176;-83
2023/03/23 07:26:04;;;;;;;14.53;10.90;;;;;;;;;;5087836;28;20199;-83
2023/03/23 07:28:30;;;;;;;16.93;12.23;;;;;;;;;;5077337;28;20234;-82
2023/03/23 07:30:56;;;;;;;14.40;11.33;;;;;;;;;;5099818;28;20640;-83
2023/03/23 07:33:22;;;;;;;18.07;11.40;;;;;;;;;;5085547;28;20723;-83
2023/03/23 07:35:48;;;;;;;13.50;10.27;;;;;;;;;;5074911;28;20211;-83
2023/03/23 07:38:14;;;;;;;14.13;10.53;;;;;;;;;;5075978;28;20266;-83
2023/03/23 07:40:41;;;;;;;14.17;10.23;;;;;;;;;;5077850;28;20199;-83
2023/03/23 07:43:07;;;;;;;13.07;10.93;;;;;;;;;;5101866;28;20188;-83
2023/03/23 07:45:34;;;;;;;15.30;10.67;;;;;;;;;;5087480;28;20196;-83
2023/03/23 07:48:00;;;;;;;14.40;10.00;;;;;;;;;;5078652;28;20579;-84
2023/03/23 07:50:28;;;;;;;13.93;9.73;;;;;;;;;;5087055;28;20591;-82
2023/03/23 07:52:56;;;;;;;17.03;10.07;;;;;;;;;;5081835;28;20172;-82
2023/03/23 07:55:24;;;;;;;15.77;10.97;;;;;;;;;;5103334;28;20206;-82
2023/03/23 07:57:51;;;;;;;14.30;9.83;;;;;;;;;;5080576;28;20646;-82
2023/03/23 08:00:19;;;;;;;13.10;10.00;;;;;;;;;;5083689;28;20265;-82
2023/03/23 08:02:46;;;;;;;15.90;10.00;;;;;;;;;;5087042;28;20234;-82
2023/03/23 08:05:32;;;;;;;15.07;10.07;;;;;;;;;;5110276;28;20176;-82
2023/03/23 08:07:59;;;;;;;11.77;9.20;;;;;;;;;;5088334;28;20218;-82
2023/03/23 08:10:30;;;;;;;13.40;8.97;;;;;;;;;;5082433;28;21075;-82
2023/03/23 08:12:57;;;;;;;11.67;8.67;;;;;;;;;;5085252;28;20179;-83
2023/03/23 08:15:23;;;;;;;10.50;8.63;;;;;;;;;;5091098;28;20188;-82
2023/03/23 08:17:51;;;;;;;12.80;8.77;;;;;;;;;;5094596;28;20229;-82
2023/03/23 08:20:18;;;;;;;10.80;8.63;;;;;;;;;;5093919;28;20196;-82
2023/03/23 08:22:45;;;;;;;12.87;7.70;;;;;;;;;;5091758;28;20284;-82
2023/03/23 08:25:12;;;;;;;10.83;7.57;;;;;;;;;;5089102;28;20241;-82
2023/03/23 08:27:43;;;;;;;11.97;8.33;;;;;;;;;;5094606;28;20175;-87
2023/03/23 08:30:10;;;;;;;10.10;7.60;;;;;;;;;;5108995;28;20179;-83
2023/03/23 08:32:36;;;;;;;16.07;7.50;;;;;;;;;;5075911;28;20184;-84
2023/03/23 08:35:02;;;;;;;10.10;7.63;;;;;;;;;;5113640;28;20168;-83
2023/03/23 08:37:34;;;;;;;13.57;7.13;;;;;;;;;;5084114;28;20283;-84
2023/03/23 08:40:07;;;;;;;10.10;7.07;;;;;;;;;;5086879;28;20348;-83
2023/03/23 08:42:33;;;;;;;8.97;7.00;;;;;;;;;;5088867;28;20224;-83
2023/03/23 08:45:04;;;;;;;9.50;7.07;;;;;;;;;;5077247;28;20196;-84
2023/03/23 08:47:30;;;;;;;11.17;7.07;;;;;;;;;;5075157;28;20180;-83
2023/03/23 08:50:01;;;;;;;8.33;6.43;;;;;;;;;;5094596;28;20171;-84
2023/03/23 08:52:33;;;;;;;9.73;5.83;;;;;;;;;;5090059;28;20270;-84
2023/03/23 08:55:01;;;;;;;8.10;6.07;;;;;;;;;;5091180;28;20660;-83
2023/03/23 08:57:30;;;;;;;8.50;6.33;;;;;;;;;;5090959;28;20179;-84
2023/03/23 09:00:17;;;;;;;10.00;6.77;;;;;;;;;;5088820;28;20210;-83
2023/03/23 09:02:45;;;;;;;7.03;6.20;;;;;;;;;;5086472;28;20180;-84
2023/03/23 09:05:11;;;;;;;7.20;5.60;;;;;;;;;;5091825;28;20792;-84
2023/03/23 09:07:41;;;;;;;7.80;6.20;;;;;;;;;;5109330;28;20537;-83
2023/03/23 09:10:07;;;;;;;8.83;6.17;;;;;;;;;;5087871;28;20290;-83
2023/03/23 09:12:34;;;;;;;8.10;5.57;;;;;;;;;;5095200;28;20634;-85
2023/03/23 09:15:08;;;;;;;6.90;5.30;;;;;;;;;;5090448;28;20180;-84
2023/03/23 09:17:34;;;;;;;7.87;5.90;;;;;;;;;;5079177;28;20195;-84
2023/03/23 09:20:01;;;;;;;10.67;5.83;;;;;;;;;;5108828;28;20175;-84
2023/03/23 09:22:28;;;;;;;8.93;5.70;;;;;;;;;;5088218;28;20356;-82
2023/03/23 09:24:55;;;;;;;14.53;6.00;;;;;;;;;;5092853;28;20661;-81
2023/03/23 09:27:21;;;;;;;6.40;5.30;;;;;;;;;;5108663;28;20195;-82
2023/03/23 09:29:48;;;;;;;7.80;5.13;;;;;;;;;;5108260;28;20183;-83
2023/03/23 09:32:15;;;;;;;11.27;5.67;;;;;;;;;;5094045;28;20255;-82
2023/03/23 09:34:41;;;;;;;7.50;4.90;;;;;;;;;;5092353;28;20168;-84
2023/03/23 09:37:07;;;;;;;6.43;4.37;;;;;;;;;;5087741;28;20176;-82
2023/03/23 09:39:33;;;;;;;9.80;5.23;;;;;;;;;;5107914;28;20660;-83
2023/03/23 09:42:06;;;;;;;8.70;4.90;;;;;;;;;;5107362;28;20208;-83
2023/03/23 09:44:58;;;;;;;7.30;5.03;;;;;;;;;;5092468;28;20176;-84
2023/03/23 09:47:36;;;;;;;6.40;4.97;;;;;;;;;;5090348;28;20225;-82
2023/03/23 09:50:19;;;;;;;6.13;4.27;;;;;;;;;;5089734;28;20176;-81
2023/03/23 09:52:54;;;;;;;6.17;4.73;;;;;;;;;;5090128;28;20182;-82
2023/03/23 09:55:21;;;;;;;7.87;4.57;;;;;;;;;;5103646;28;20187;-81
2023/03/23 09:57:47;;;;;;;4.93;4.13;;;;;;;;;;5086686;28;20186;-84
2023/03/23 10:03:23;;;;;;;7.17;4.43;;;;;;;;;;5063931;28;20218;-83
2023/03/23 10:05:51;;;;;;;7.07;4.47;;;;;;;;;;5092725;28;20187;-83
2023/03/23 10:08:19;;;;;;;5.70;4.07;;;;;;;;;;5087573;28;20184;-82
2023/03/23 10:10:48;;;;;;;7.53;4.60;;;;;;;;;;5100721;28;20180;-84
2023/03/23 10:13:26;;;;;;;4.73;4.23;;;;;;;;;;5086226;28;20222;-83
2023/03/23 10:15:55;;;;;;;9.30;5.43;;;;;;;;;;5087569;28;20195;-83
2023/03/23 10:18:26;;;;;;;7.00;5.47;;;;;;;;;;5081423;28;20195;-82
2023/03/23 10:20:59;;;;;;;9.80;6.10;;;;;;;;;;5090412;28;20704;-83
2023/03/23 10:23:40;;;;;;;6.73;4.83;;;;;;;;;;5093682;28;20179;-82
2023/03/23 10:26:16;;;;;;;4.93;4.10;;;;;;;;;;5087770;28;20171;-82
2023/03/23 10:28:48;;;;;;;8.90;4.97;;;;;;;;;;5087086;28;20211;-83
2023/03/23 10:31:18;;;;;;;7.73;4.60;;;;;;;;;;5096662;28;20195;-83
2023/03/23 10:33:46;;;;;;;6.33;4.37;;;;;;;;;;5089522;28;20187;-82
2023/03/23 10:36:25;;;;;;;7.03;4.60;;;;;;;;;;5090190;28;20229;-82
2023/03/23 10:38:58;;;;;;;7.93;4.70;;;;;;;;;;5088460;28;20190;-82
2023/03/23 10:41:24;;;;;;;6.53;5.10;;;;;;;;;;5089619;28;20209;-82
2023/03/23 10:43:53;;;;;;;7.00;4.70;;;;;;;;;;5103284;28;20191;-83
2023/03/23 10:46:35;;;;;;;6.93;5.50;;;;;;;;;;5082743;28;20188;-81
2023/03/23 10:49:02;;;;;;;7.43;5.03;;;;;;;;;;5083100;28;20244;-82
2023/03/23 10:51:41;;;;;;;11.53;5.13;;;;;;;;;;5106620;28;20262;-83
2023/03/23 10:54:08;;;;;;;5.17;4.03;;;;;;;;;;5084717;28;20176;-82
2023/03/23 10:56:42;;;;;;;4.47;3.83;;;;;;;;;;5089438;28;20179;-82
2023/03/23 10:59:15;;;;;;;4.17;3.60;;;;;;;;;;5077037;28;20164;-82
2023/03/23 11:01:45;;;;;;;7.97;3.53;;;;;;;;;;5078759;28;20755;-85
2023/03/23 11:04:12;;;;;;;5.03;3.50;;;;;;;;;;5084983;28;20212;-83
2023/03/23 11:06:44;;;;;;;6.80;2.97;;;;;;;;;;5090496;28;20179;-83
2023/03/23 11:09:12;;;;;;;5.67;3.10;;;;;;;;;;5089324;28;20304;-82
2023/03/23 11:11:43;;;;;;;4.93;2.67;;;;;;;;;;5089269;28;20585;-82
2023/03/23 11:14:12;;;;;;;5.53;2.67;;;;;;;;;;5086507;28;20256;-82
2023/03/23 11:16:44;;;;;;;4.27;2.77;;;;;;;;;;5101937;28;20219;-84
2023/03/23 11:19:14;;;;;;;3.43;2.60;;;;;;;;;;5086211;28;20194;-83
2023/03/23 11:21:41;;;;;;;3.13;2.50;;;;;;;;;;5101138;28;20235;-84
2023/03/23 11:24:08;;;;;;;5.37;3.10;;;;;;;;;;5088612;28;20186;-84
2023/03/23 11:26:35;;;;;;;6.77;3.17;;;;;;;;;;5089670;28;20197;-84
2023/03/23 11:29:04;;;;;;;3.60;2.83;;;;;;;;;;5081770;28;20172;-83
2023/03/23 11:31:35;;;;;;;5.97;4.10;;;;;;;;;;5087050;28;20183;-82
2023/03/23 11:34:03;;;;;;;3.77;3.10;;;;;;;;;;5086621;28;20191;-83
2023/03/23 11:36:32;;;;;;;4.93;3.13;;;;;;;;;;5104983;28;20195;-83
2023/03/23 11:39:05;;;;;;;4.50;2.80;;;;;;;;;;5076545;28;20176;-82
2023/03/23 11:41:33;;;;;;;3.30;3.00;;;;;;;;;;5092277;28;20738;-84
2023/03/23 11:44:03;;;;;;;4.43;2.80;;;;;;;;;;5107713;28;20637;-82
2023/03/23 11:46:32;;;;;;;3.90;2.67;;;;;;;;;;5111737;28;20188;-83
2023/03/23 11:49:02;;;;;;;5.67;2.63;;;;;;;;;;5092407;28;20187;-83
2023/03/23 11:52:04;;;;;;;4.10;3.00;;;;;;;;;;5092339;28;20188;-84
2023/03/23 11:54:36;;;;;;;3.03;2.70;;;;;;;;;;5016006;28;20767;-84
2023/03/23 11:57:07;;;;;;;5.20;2.77;;;;;;;;;;5012991;28;20696;-84
2023/03/23 11:59:35;;;;;;;3.37;2.80;;;;;;;;;;5011497;28;20608;-83
2023/03/23 12:02:13;;;;;;;3.53;2.77;;;;;;;;;;5030670;28;20218;-82
2023/03/23 12:04:45;;;;;;;5.13;2.37;;;;;;;;;;5013202;28;20281;-85
2023/03/23 12:07:11;;;;;;;2.77;2.40;;;;;;;;;;5019824;28;20321;-85
2023/03/23 12:09:43;;;;;;;4.77;2.53;;;;;;;;;;5024402;28;20207;-84
2023/03/23 12:12:32;;;;;;;3.60;3.20;;;;;;;;;;5010949;28;20209;-83
2023/03/23 12:15:08;;;;;;;5.47;3.37;;;;;;;;;;5029706;28;20202;-83
2023/03/23 12:17:41;;;;;;;6.07;3.47;;;;;;;;;;5030639;28;20178;-83
2023/03/23 12:20:23;;;;;;;4.23;3.00;;;;;;;;;;5013421;28;20195;-84
2023/03/23 12:23:25;;;;;;;5.20;3.23;;;;;;;;;;5008583;28;20322;-84
2023/03/23 12:26:00;;;;;;;7.93;4.00;;;;;;;;;;4969110;28;20193;-84
2023/03/23 12:28:33;;;;;;;10.27;3.53;;;;;;;;;;4997495;28;20200;-83
2023/03/23 12:31:00;;;;;;;7.27;4.27;;;;;;;;;;5045839;28;20189;-83
2023/03/23 12:33:46;;;;;;;4.67;4.03;;;;;;;;;;5042305;28;20719;-84
2023/03/23 12:36:27;;;;;;;6.80;3.97;;;;;;;;;;5030054;28;20568;-83
2023/03/23 12:39:05;;;;;;;9.37;4.63;;;;;;;;;;5014313;28;20710;-83
2023/03/23 12:41:54;;;;;;;8.47;4.17;;;;;;;;;;5031422;28;20222;-84
2023/03/23 12:44:26;;;;;;;6.70;3.93;;;;;;;;;;5019811;28;20539;-84
2023/03/23 12:47:02;;;;;;;6.97;4.27;;;;;;;;;;5022721;28;20197;-84
2023/03/23 12:49:36;;;;;;;5.33;4.17;;;;;;;;;;5035045;28;20182;-83
2023/03/23 12:52:11;;;;;;;6.07;4.80;;;;;;;;;;5021754;28;20699;-84
2023/03/23 12:54:38;;;;;;;5.57;4.47;;;;;;;;;;5027794;28;20266;-83
2023/03/23 12:57:35;;;;;;;5.63;4.77;;;;;;;;;;5029028;28;20194;-84
2023/03/23 13:00:14;;;;;;;5.67;3.80;;;;;;;;;;5026042;28;20212;-82
2023/03/23 13:02:44;;;;;;;8.63;4.53;;;;;;;;;;5065805;28;20187;-83
2023/03/23 13:05:14;;;;;;;6.83;5.07;;;;;;;;;;5068668;28;20181;-84
2023/03/23 13:07:47;;;;;;;6.17;4.77;;;;;;;;;;5062670;28;20185;-84
2023/03/23 13:10:13;;;;;;;5.73;3.80;;;;;;;;;;5067140;28;20276;-83
2023/03/23 13:12:41;;;;;;;6.87;4.23;;;;;;;;;;5068423;28;20177;-83
2023/03/23 13:15:19;;;;;;;5.03;4.00;;;;;;;;;;5051701;28;20188;-85
2023/03/23 13:17:50;;;;;;;6.33;4.73;;;;;;;;;;5068512;28;20180;-84
2023/03/23 13:20:34;;;;;;;5.83;4.50;;;;;;;;;;5081217;28;20274;-83
2023/03/23 13:23:13;;;;;;;6.23;4.37;;;;;;;;;;5102852;28;20227;-83
2023/03/23 13:25:49;;;;;;;6.93;4.30;;;;;;;;;;5087770;28;20179;-84
2023/03/23 13:28:22;;;;;;;6.03;4.20;;;;;;;;;;5088256;28;20191;-85
2023/03/23 13:31:02;;;;;;;7.10;4.10;;;;;;;;;;5095098;28;20180;-84
2023/03/23 13:33:36;;;;;;;5.50;3.63;;;;;;;;;;5089999;28;20300;-83
2023/03/23 13:36:09;;;;;;;5.10;3.40;;;;;;;;;;5088250;28;20228;-84
2023/03/23 13:38:36;;;;;;;4.03;3.27;;;;;;;;;;5087297;28;20172;-82
2023/03/23 13:41:10;;;;;;;9.53;3.77;;;;;;;;;;5090038;28;20211;-83
2023/03/23 13:43:37;;;;;;;4.90;3.57;;;;;;;;;;5087477;28;20701;-83
2023/03/23 13:46:12;;;;;;;7.50;3.53;;;;;;;;;;5085369;28;20206;-83
2023/03/23 13:48:46;;;;;;;6.97;4.10;;;;;;;;;;5086333;28;20180;-84
2023/03/23 13:51:31;;;;;;;4.43;3.53;;;;;;;;;;5089919;28;20195;-83
2023/03/23 13:54:14;;;;;;;6.40;3.87;;;;;;;;;;5104095;28;20167;-83
2023/03/23 13:56:49;;;;;;;4.07;3.40;;;;;;;;;;5090817;28;20266;-82
2023/03/23 13:59:16;;;;;;;5.03;3.77;;;;;;;;;;5088545;28;20194;-83
2023/03/23 14:01:43;;;;;;;7.40;3.87;;;;;;;;;;5084335;28;20244;-83
2023/03/23 14:04:15;;;;;;;4.07;3.63;;;;;;;;;;5105492;28;20802;-84
2023/03/23 14:06:41;;;;;;;6.33;3.70;;;;;;;;;;5094846;28;20538;-81
2023/03/23 14:09:11;;;;;;;5.23;3.63;;;;;;;;;;5090342;28;20191;-82
2023/03/23 14:12:10;;;;;;;5.37;3.63;;;;;;;;;;5076986;28;20271;-80
2023/03/23 14:14:45;;;;;;;8.60;4.37;;;;;;;;;;5025249;28;20197;-81
2023/03/23 14:17:15;;;;;;;8.50;4.17;;;;;;;;;;5028737;28;20756;-83
2023/03/23 14:19:43;;;;;;;6.60;4.30;;;;;;;;;;5046041;28;20674;-82
2023/03/23 14:22:19;;;;;;;5.93;4.10;;;;;;;;;;5045978;28;20279;-82
2023/03/23 14:24:45;;;;;;;10.23;3.97;;;;;;;;;;5046313;28;20205;-81
2023/03/23 14:27:14;;;;;;;7.90;4.20;;;;;;;;;;5045879;28;20190;-81
2023/03/23 14:29:40;;;;;;;5.23;3.60;;;;;;;;;;5037670;28;20177;-82
2023/03/23 14:32:08;;;;;;;6.90;3.70;;;;;;;;;;5032549;28;20280;-81
2023/03/23 14:34:35;;;;;;;5.50;4.00;;;;;;;;;;5031744;28;20181;-81
2023/03/23 14:37:01;;;;;;;10.43;4.77;;;;;;;;;;5047272;28;20205;-82
2023/03/23 14:39:29;;;;;;;7.33;4.13;;;;;;;;;;5044945;28;20276;-81
2023/03/23 14:41:56;;;;;;;6.40;4.60;;;;;;;;;;5045977;28;20591;-82
2023/03/23 14:44:28;;;;;;;8.53;4.43;;;;;;;;;;5031232;28;20216;-81
2023/03/23 14:46:55;;;;;;;7.80;4.30;;;;;;;;;;5026872;28;20186;-81